createdAt,value
2022-08-05T04:00:32.209Z,20.93
2022-08-05T04:05:33.857Z,21.09
2022-08-05T04:10:37.549Z,21.11
2022-08-05T04:16:43.596Z,21.03
2022-08-05T04:22:09.783Z,21.20
2022-08-05T04:26:44.499Z,21.31
2022-08-05T04:31:43.440Z,21.24
2022-08-05T04:36:46.054Z,21.31
2022-08-05T04:41:44.415Z,21.31
2022-08-05T04:46:43.276Z,21.07
2022-08-05T04:51:43.290Z,21.03
2022-08-05T04:56:43.531Z,21.13
2022-08-05T05:02:06.744Z,21.08
2022-08-05T05:06:44.913Z,20.90
2022-08-05T05:11:55.719Z,21.05
2022-08-05T05:16:43.959Z,21.18
2022-08-05T05:21:42.888Z,21.25
2022-08-05T05:26:42.840Z,21.30
2022-08-05T05:31:42.779Z,21.44
2022-08-05T05:36:42.721Z,21.37
2022-08-05T05:41:42.678Z,21.50
2022-08-05T05:46:42.600Z,21.64
2022-08-05T05:51:49.586Z,21.59
2022-08-05T05:56:43.559Z,21.59
2022-08-05T06:01:57.374Z,21.44
2022-08-05T06:06:47.377Z,21.47
2022-08-05T06:11:48.828Z,21.63
2022-08-05T06:16:43.286Z,21.97
2022-08-05T06:21:49.746Z,21.74
2022-08-05T06:26:51.309Z,22.13
2022-08-05T06:31:43.114Z,21.91
2022-08-05T06:36:57.107Z,21.73
2022-08-05T06:41:43.007Z,21.79
2022-08-05T06:46:41.954Z,21.55
2022-08-05T06:51:41.894Z,21.47
2022-08-05T06:56:41.845Z,21.29
2022-08-05T07:01:42.825Z,21.08
2022-08-05T07:06:41.737Z,21.14
2022-08-05T07:11:42.523Z,21.19
2022-08-05T07:17:57.311Z,21.27
2022-08-05T07:22:00.642Z,21.31
2022-08-05T07:26:42.510Z,21.02
2022-08-05T07:31:54.787Z,21.08
2022-08-05T07:36:42.398Z,21.08
2022-08-05T07:42:13.615Z,21.08
2022-08-05T07:46:48.210Z,20.73
2022-08-05T07:51:53.452Z,20.46
2022-08-05T07:57:02.613Z,20.60
2022-08-05T08:01:52.263Z,20.54
2022-08-05T08:06:42.075Z,20.42
2022-08-05T08:11:47.774Z,20.30
2022-08-05T08:16:50.778Z,20.49
2022-08-05T08:21:41.902Z,20.20
2022-08-05T08:26:41.368Z,20.29
2022-08-05T08:31:41.389Z,20.15
2022-08-05T08:36:49.103Z,20.02
2022-08-05T08:41:52.593Z,20.01
2022-08-05T08:46:41.641Z,19.57
2022-08-05T08:52:04.359Z,19.76
2022-08-05T08:56:47.444Z,19.70
2022-08-05T09:01:42.698Z,19.54
2022-08-05T09:06:40.404Z,19.31
2022-08-05T09:11:53.649Z,19.10
2022-08-05T09:16:41.293Z,19.20
2022-08-05T09:22:21.888Z,19.11
2022-08-05T09:26:41.181Z,19.06
2022-08-05T09:32:42.167Z,19.30
2022-08-05T09:36:54.742Z,19.71
2022-08-05T09:41:41.019Z,19.57
2022-08-05T09:46:39.969Z,19.82
2022-08-05T09:51:41.001Z,19.99
2022-08-05T09:56:39.856Z,19.95
2022-08-05T10:01:40.799Z,19.95
2022-08-05T10:06:39.747Z,19.80
2022-08-05T10:11:39.686Z,19.78
2022-08-05T10:16:52.243Z,19.66
2022-08-05T10:21:41.201Z,20.06
2022-08-05T10:26:52.047Z,19.86
2022-08-05T10:32:52.970Z,20.02
2022-08-05T10:36:40.413Z,20.40
2022-08-05T10:41:45.172Z,20.91
2022-08-05T10:46:40.307Z,21.60
2022-08-05T10:51:48.522Z,22.20
2022-08-05T10:56:40.191Z,22.36
2022-08-05T11:01:54.026Z,22.87
2022-08-05T11:06:40.084Z,22.45
2022-08-05T11:11:44.403Z,22.79
2022-08-05T11:16:47.675Z,22.57
2022-08-05T11:21:48.717Z,23.29
2022-08-05T11:26:40.429Z,23.22
2022-08-05T11:31:58.825Z,23.67
2022-08-05T11:36:40.494Z,23.69
2022-08-05T11:42:01.477Z,23.83
2022-08-05T11:47:09.634Z,24.06
2022-08-05T11:51:49.186Z,24.09
2022-08-05T11:56:41.019Z,24.30
2022-08-05T12:01:38.490Z,24.40
2022-08-05T12:06:38.443Z,24.74
2022-08-05T12:11:40.259Z,24.49
2022-08-05T12:16:38.755Z,24.63
2022-08-05T12:21:39.096Z,25.08
2022-08-05T12:26:38.231Z,25.58
2022-08-05T12:31:45.962Z,26.14
2022-08-05T12:36:39.216Z,24.70
2022-08-05T12:41:43.604Z,24.52
2022-08-05T12:46:39.014Z,24.92
2022-08-05T12:52:13.716Z,26.16
2022-08-05T12:56:38.906Z,24.45
2022-08-05T13:02:01.385Z,24.02
2022-08-05T13:06:38.793Z,24.78
2022-08-05T13:12:02.667Z,25.86
2022-08-05T13:16:38.690Z,26.15
2022-08-05T13:21:48.260Z,25.75
2022-08-05T13:26:38.575Z,26.14
2022-08-05T13:32:03.924Z,25.47
2022-08-05T13:36:38.460Z,24.88
2022-08-05T13:41:37.825Z,24.73
2022-08-05T13:46:37.975Z,24.69
2022-08-05T13:51:41.108Z,24.19
2022-08-05T13:56:37.251Z,23.60
2022-08-05T14:01:46.469Z,23.54
2022-08-05T14:06:38.138Z,23.63
2022-08-05T14:12:00.623Z,23.63
2022-08-05T14:16:38.034Z,23.54
2022-08-05T14:22:10.278Z,23.51
2022-08-05T14:26:51.433Z,23.57
2022-08-05T14:32:03.945Z,23.70
2022-08-05T14:36:37.811Z,24.25
2022-08-05T14:41:36.758Z,25.36
2022-08-05T14:46:37.704Z,25.11
2022-08-05T14:51:36.649Z,24.99
2022-08-05T14:56:38.053Z,25.23
2022-08-05T15:01:48.751Z,24.76
2022-08-05T15:06:37.502Z,24.72
2022-08-05T15:11:51.208Z,24.48
2022-08-05T15:16:37.392Z,24.64
2022-08-05T15:21:36.349Z,24.57
2022-08-05T15:26:36.281Z,24.27
2022-08-05T15:31:36.285Z,24.56
2022-08-05T15:36:36.220Z,24.82
2022-08-05T15:41:55.570Z,24.27
2022-08-05T15:46:37.066Z,23.89
2022-08-05T15:52:04.287Z,24.02
2022-08-05T15:56:36.970Z,24.01
2022-08-05T16:01:39.711Z,24.08
2022-08-05T16:06:36.900Z,24.06
2022-08-05T16:11:42.763Z,24.93
2022-08-05T16:17:58.086Z,25.01
2022-08-05T16:22:48.588Z,24.75
2022-08-05T16:28:04.852Z,24.24
2022-08-05T16:32:48.334Z,23.91
2022-08-05T16:38:02.700Z,24.06
2022-08-05T16:42:48.253Z,23.75
2022-08-05T16:47:54.896Z,23.42
2022-08-05T16:52:48.106Z,23.44
2022-08-05T16:58:00.298Z,23.41
2022-08-05T17:02:47.998Z,23.24
2022-08-05T17:07:52.990Z,23.18
2022-08-05T17:12:51.485Z,23.30
2022-08-05T17:17:54.745Z,23.27
2022-08-05T17:22:47.778Z,23.17
2022-08-05T17:27:47.756Z,22.99
2022-08-05T17:32:46.688Z,22.78
2022-08-05T17:37:48.282Z,22.56
2022-08-05T17:42:51.917Z,22.72
2022-08-05T17:47:52.956Z,22.82
2022-08-05T17:52:53.005Z,22.98
2022-08-05T17:57:48.751Z,22.74
2022-08-05T18:02:46.358Z,22.77
2022-08-05T18:07:46.296Z,22.47
2022-08-05T18:12:46.238Z,22.47
2022-08-05T18:18:00.482Z,22.42
2022-08-05T18:22:54.606Z,22.31
2022-08-05T18:27:52.318Z,22.26
2022-08-05T18:32:53.056Z,22.00
2022-08-05T18:37:46.964Z,21.91
2022-08-05T18:42:45.974Z,21.84
2022-08-05T18:47:50.130Z,21.53
2022-08-05T18:52:51.127Z,21.43
2022-08-05T18:57:52.896Z,21.23
2022-08-05T19:02:46.887Z,20.96
2022-08-05T19:07:46.577Z,20.88
2022-08-05T19:12:46.207Z,20.71
2022-08-05T19:18:08.185Z,20.51
2022-08-05T19:22:46.470Z,20.57
2022-08-05T19:27:45.439Z,20.50
2022-08-05T19:32:45.355Z,20.34
2022-08-05T19:38:04.284Z,20.45
2022-08-05T19:43:00.657Z,20.53
2022-08-05T19:47:46.208Z,20.38
2022-08-05T19:52:47.716Z,20.12
2022-08-05T19:57:47.414Z,19.81
2022-08-05T20:02:46.023Z,19.60
2022-08-05T20:07:48.120Z,19.52
2022-08-05T20:12:48.298Z,19.42
2022-08-05T20:17:44.859Z,19.38
2022-08-05T20:22:44.836Z,19.07
2022-08-05T20:27:44.759Z,19.19
2022-08-05T20:32:45.157Z,19.08
2022-08-05T20:38:06.256Z,19.11
2022-08-05T20:42:45.587Z,18.97
2022-08-05T20:47:44.530Z,18.94
2022-08-05T20:52:44.501Z,18.83
2022-08-05T20:57:45.116Z,18.71
2022-08-05T21:02:51.599Z,18.76
2022-08-05T21:07:45.882Z,18.72
2022-08-05T21:12:57.663Z,18.62
2022-08-05T21:17:45.209Z,18.58
2022-08-05T21:22:44.157Z,18.39
2022-08-05T21:27:47.512Z,18.41
2022-08-05T21:32:44.046Z,18.11
2022-08-05T21:37:52.658Z,18.33
2022-08-05T21:42:45.751Z,18.22
2022-08-05T21:47:56.897Z,18.08
2022-08-05T21:52:47.546Z,17.88
2022-08-05T21:57:43.776Z,17.95
2022-08-05T22:02:43.733Z,17.87
2022-08-05T22:07:59.017Z,17.86
2022-08-05T22:12:44.905Z,17.89
2022-08-05T22:18:58.779Z,17.72
2022-08-05T22:24:02.476Z,17.78
2022-08-05T22:28:56.017Z,17.79
2022-08-05T22:33:57.169Z,17.80
2022-08-05T22:38:56.000Z,17.68
2022-08-05T22:43:54.841Z,17.71
2022-08-05T22:48:54.820Z,17.67
2022-08-05T22:53:55.071Z,17.69
2022-08-05T22:58:54.682Z,17.44
2022-08-05T23:03:58.776Z,17.48
2022-08-05T23:08:54.571Z,17.26
2022-08-05T23:13:54.523Z,17.17
2022-08-05T23:18:54.485Z,17.11
2022-08-05T23:23:54.416Z,17.20
2022-08-05T23:28:54.360Z,17.12
